Orbital elements of COSMOS 1275 DEB
| Launched | 3 June 1981 |
| Flight ended | – |
| Launch site | Plesetsk Missile and Space Complex, Russia |
| Owner | Commonwealth of Independent States (former USSR) |
| NORAD ID | 14558 |
| Date fetched |
Epoch osculation |
Inc. [°] |
Ecc. | RA asc node [hr] |
Arg Peri. [°] |
Mean anom [°] |
Mean motion [rev/day] |
Abs. mag |
| Date fetched |
Epoch osculation |
Inc. [°] |
Ecc. | RA asc node [hr] |
Arg Peri. [°] |
Mean anom [°] |
Mean motion [rev/day] |
Abs. mag |
| 2026 May 08 17:57 | 2026 May 05 05:12:45 | 82.9217 | 0.00156 | 2.8938 | 347.7016 | 164.5353 | 14.39587 | – |
| 2026 May 07 17:58 | 2026 May 05 05:12:45 | 82.9217 | 0.00156 | 2.8938 | 347.7016 | 164.5353 | 14.39587 | – |
| 2026 May 06 17:57 | 2026 May 05 05:12:45 | 82.9217 | 0.00156 | 2.8938 | 347.7016 | 164.5353 | 14.39587 | – |
| 2026 May 05 17:57 | 2026 May 05 05:12:45 | 82.9217 | 0.00156 | 2.8938 | 347.7016 | 164.5353 | 14.39587 | – |
| 2026 May 04 17:57 | 2026 Apr 30 12:59:37 | 82.9219 | 0.00162 | 3.1515 | 1.0831 | 164.5353 | 14.39587 | – |
| 2026 May 03 17:57 | 2026 Apr 30 12:59:37 | 82.9219 | 0.00162 | 3.1515 | 1.0831 | 164.5353 | 14.39587 | – |
| 2026 May 02 17:57 | 2026 Apr 30 12:59:37 | 82.9219 | 0.00162 | 3.1515 | 1.0831 | 164.5353 | 14.39587 | – |
| 2026 May 01 17:56 | 2026 Apr 30 12:59:37 | 82.9219 | 0.00162 | 3.1515 | 1.0831 | 164.5353 | 14.39587 | – |
| 2026 Apr 30 17:56 | 2026 Apr 30 12:59:37 | 82.9219 | 0.00162 | 3.1515 | 1.0831 | 164.5353 | 14.39587 | – |
| 2026 Apr 29 17:57 | 2026 Apr 24 07:18:31 | 82.9203 | 0.00169 | 3.4953 | 18.5299 | 164.5353 | 14.39587 | – |
| 2026 Apr 28 17:56 | 2026 Apr 24 07:18:31 | 82.9203 | 0.00169 | 3.4953 | 18.5299 | 164.5353 | 14.39587 | – |
| 2026 Apr 27 17:58 | 2026 Apr 24 07:18:31 | 82.9203 | 0.00169 | 3.4953 | 18.5299 | 164.5353 | 14.39587 | – |
| 2026 Apr 26 17:58 | 2026 Apr 24 07:18:31 | 82.9203 | 0.00169 | 3.4953 | 18.5299 | 164.5353 | 14.39587 | – |
| 2026 Apr 25 17:58 | 2026 Apr 24 07:18:31 | 82.9203 | 0.00169 | 3.4953 | 18.5299 | 164.5353 | 14.39587 | – |
| 2026 Apr 24 17:59 | 2026 Apr 24 07:18:31 | 82.9203 | 0.00169 | 3.4953 | 18.5299 | 164.5353 | 14.39587 | – |
| 2026 Apr 23 17:57 | 2026 Apr 19 07:11:01 | 82.9206 | 0.00172 | 3.7712 | 32.1793 | 164.5353 | 14.39587 | – |
| 2026 Apr 22 17:57 | 2026 Apr 19 07:11:01 | 82.9206 | 0.00172 | 3.7712 | 32.1793 | 164.5353 | 14.39587 | – |
| 2026 Apr 21 17:57 | 2026 Apr 19 07:11:01 | 82.9206 | 0.00172 | 3.7712 | 32.1793 | 164.5353 | 14.39587 | – |
| 2026 Apr 20 17:57 | 2026 Apr 19 07:11:01 | 82.9206 | 0.00172 | 3.7712 | 32.1793 | 164.5353 | 14.39587 | – |
| 2026 Apr 19 17:58 | 2026 Apr 19 07:11:01 | 82.9206 | 0.00172 | 3.7712 | 32.1793 | 164.5353 | 14.39587 | – |
| 2026 Apr 18 17:56 | 2026 Apr 13 07:42:32 | 82.9191 | 0.00175 | 4.1007 | 48.4368 | 164.5353 | 14.39587 | – |
| 2026 Apr 16 17:57 | 2026 Apr 13 07:42:32 | 82.9191 | 0.00175 | 4.1007 | 48.4368 | 164.5353 | 14.39587 | – |
| 2026 Apr 14 17:57 | 2026 Apr 13 07:42:32 | 82.9191 | 0.00175 | 4.1007 | 48.4368 | 164.5353 | 14.39587 | – |
| 2026 Apr 13 17:57 | 2026 Apr 13 07:42:32 | 82.9191 | 0.00175 | 4.1007 | 48.4368 | 164.5353 | 14.39587 | – |
| 2026 Apr 12 17:57 | 2026 Apr 08 09:15:39 | 82.9195 | 0.00175 | 4.3728 | 61.7898 | 164.5353 | 14.39587 | – |
| 2026 Apr 11 17:57 | 2026 Apr 08 09:15:39 | 82.9195 | 0.00175 | 4.3728 | 61.7898 | 164.5353 | 14.39587 | – |